Time;durP1;ratioP1;P1;durP2;ratioP2;P2;SDS_P1;SDS_P2;PMS_P1;PMS_P2;Temp;Humidity;BMP_temperature;BMP_pressure;BME280_temperature;BME280_humidity;BME280_pressure;Samples;Min_cycle;Max_cycle;Signal;HPM_P1;HPM_P2
2023/06/28 00:00:33;;;;;;;5.45;2.78;;;;;;;;;;5004974;28;20058;-59
2023/06/28 00:03:00;;;;;;;5.38;2.85;;;;;;;;;;5004793;28;20050;-60
2023/06/28 00:05:26;;;;;;;3.55;2.67;;;;;;;;;;5004995;28;20041;-60
2023/06/28 00:07:52;;;;;;;4.47;2.67;;;;;;;;;;5005506;28;20034;-59
2023/06/28 00:10:18;;;;;;;5.13;2.53;;;;;;;;;;5003235;28;20448;-59
2023/06/28 00:12:45;;;;;;;5.95;2.67;;;;;;;;;;5006892;28;20029;-60
2023/06/28 00:15:12;;;;;;;5.80;2.80;;;;;;;;;;5004399;28;20033;-60
2023/06/28 00:17:38;;;;;;;5.72;2.97;;;;;;;;;;5006111;28;20038;-59
2023/06/28 00:20:06;;;;;;;5.50;2.60;;;;;;;;;;5004821;28;20041;-60
2023/06/28 00:22:33;;;;;;;5.28;3.15;;;;;;;;;;5006909;28;20530;-59
2023/06/28 00:25:01;;;;;;;3.58;2.50;;;;;;;;;;5004109;28;20061;-59
2023/06/28 00:27:27;;;;;;;6.70;2.80;;;;;;;;;;5012961;28;20102;-59
2023/06/28 00:29:55;;;;;;;6.07;2.53;;;;;;;;;;5006710;28;20053;-59
2023/06/28 00:32:23;;;;;;;5.47;2.85;;;;;;;;;;5003705;28;20553;-59
2023/06/28 00:34:49;;;;;;;4.40;2.53;;;;;;;;;;5001410;28;20500;-59
2023/06/28 00:37:15;;;;;;;5.28;2.80;;;;;;;;;;4983099;28;20046;-59
2023/06/28 00:39:41;;;;;;;5.75;2.83;;;;;;;;;;5004630;28;20050;-59
2023/06/28 00:42:08;;;;;;;3.33;2.47;;;;;;;;;;5004993;28;20041;-59
2023/06/28 00:44:34;;;;;;;4.18;2.80;;;;;;;;;;5008120;28;20053;-59
2023/06/28 00:47:03;;;;;;;5.13;2.70;;;;;;;;;;5006792;28;20037;-59
2023/06/28 00:49:37;;;;;;;5.22;2.90;;;;;;;;;;5007545;28;20037;-59
2023/06/28 00:52:06;;;;;;;4.13;2.70;;;;;;;;;;5006833;28;20109;-59
2023/06/28 00:54:33;;;;;;;10.80;3.08;;;;;;;;;;5009091;28;20041;-59
2023/06/28 00:56:59;;;;;;;4.63;2.80;;;;;;;;;;5020499;28;20056;-59
2023/06/28 00:59:26;;;;;;;4.88;2.50;;;;;;;;;;5010225;28;20049;-59
2023/06/28 01:01:54;;;;;;;5.40;3.00;;;;;;;;;;5008613;28;20061;-59
2023/06/28 01:04:20;;;;;;;5.53;2.90;;;;;;;;;;5005916;28;20049;-59
2023/06/28 01:06:54;;;;;;;4.10;2.70;;;;;;;;;;5018036;28;20054;-59
2023/06/28 01:09:21;;;;;;;5.85;3.13;;;;;;;;;;5008467;28;20029;-59
2023/06/28 01:11:52;;;;;;;5.18;2.85;;;;;;;;;;5018852;28;20064;-58
2023/06/28 01:14:19;;;;;;;4.20;2.95;;;;;;;;;;5020162;28;20399;-58
2023/06/28 01:16:49;;;;;;;5.80;3.10;;;;;;;;;;5013034;28;20663;-58
2023/06/28 01:19:17;;;;;;;3.95;2.72;;;;;;;;;;5010718;28;20053;-59
2023/06/28 01:21:48;;;;;;;6.53;2.97;;;;;;;;;;5008086;28;20064;-59
2023/06/28 01:24:14;;;;;;;4.03;2.60;;;;;;;;;;5009743;28;20046;-59
2023/06/28 01:26:41;;;;;;;5.20;2.97;;;;;;;;;;5006675;28;20049;-59
2023/06/28 01:29:08;;;;;;;5.85;3.20;;;;;;;;;;5017458;28;20038;-59
2023/06/28 01:31:36;;;;;;;4.75;2.72;;;;;;;;;;5007653;28;20059;-60
2023/06/28 01:34:02;;;;;;;6.55;2.92;;;;;;;;;;5012666;28;20053;-59
2023/06/28 01:36:29;;;;;;;7.68;3.22;;;;;;;;;;5011105;28;20037;-60
2023/06/28 01:38:57;;;;;;;5.60;3.17;;;;;;;;;;5007832;28;20061;-60
2023/06/28 01:41:26;;;;;;;7.45;3.08;;;;;;;;;;5005891;28;20052;-59
2023/06/28 01:43:52;;;;;;;5.63;2.83;;;;;;;;;;5015287;28;20072;-59
2023/06/28 01:46:19;;;;;;;11.10;3.10;;;;;;;;;;5017161;28;20041;-59
2023/06/28 01:48:45;;;;;;;5.53;2.95;;;;;;;;;;5008622;28;20065;-59
2023/06/28 01:51:11;;;;;;;9.10;3.70;;;;;;;;;;5009893;28;20025;-59
2023/06/28 01:53:37;;;;;;;8.02;3.72;;;;;;;;;;5008312;28;20045;-60
2023/06/28 01:56:03;;;;;;;7.68;3.25;;;;;;;;;;5011384;28;20415;-60
2023/06/28 01:58:29;;;;;;;9.00;3.65;;;;;;;;;;5014172;28;20053;-60
2023/06/28 02:00:56;;;;;;;7.15;3.67;;;;;;;;;;5011217;28;20034;-59
2023/06/28 02:03:22;;;;;;;8.40;3.22;;;;;;;;;;5020693;28;20041;-59
2023/06/28 02:05:48;;;;;;;6.93;3.40;;;;;;;;;;5005659;28;20034;-59
2023/06/28 02:08:14;;;;;;;8.10;3.08;;;;;;;;;;5007499;28;20046;-60
2023/06/28 02:10:40;;;;;;;5.97;3.30;;;;;;;;;;5021430;28;20057;-59
2023/06/28 02:13:06;;;;;;;5.40;3.60;;;;;;;;;;4996804;28;20044;-60
2023/06/28 02:15:32;;;;;;;5.47;3.25;;;;;;;;;;5010539;28;20416;-59
2023/06/28 02:17:58;;;;;;;5.65;3.92;;;;;;;;;;5008385;28;20041;-59
2023/06/28 02:20:25;;;;;;;9.50;3.50;;;;;;;;;;5010347;28;20038;-59
2023/06/28 02:22:51;;;;;;;9.32;4.10;;;;;;;;;;5004353;28;20054;-60
2023/06/28 02:25:17;;;;;;;8.48;3.97;;;;;;;;;;5006275;28;20046;-60
2023/06/28 02:27:43;;;;;;;8.85;3.95;;;;;;;;;;5011788;28;20034;-60
2023/06/28 02:30:09;;;;;;;6.18;3.80;;;;;;;;;;5009762;28;20117;-60
2023/06/28 02:32:36;;;;;;;6.20;3.80;;;;;;;;;;5012210;28;20034;-60
2023/06/28 02:35:02;;;;;;;7.90;4.32;;;;;;;;;;5005494;28;20038;-60
2023/06/28 02:37:28;;;;;;;6.05;3.95;;;;;;;;;;5008481;28;20038;-60
2023/06/28 02:39:54;;;;;;;7.68;4.50;;;;;;;;;;5007661;28;20483;-60
2023/06/28 02:42:20;;;;;;;6.22;4.32;;;;;;;;;;5013831;28;20495;-59
2023/06/28 02:44:46;;;;;;;10.20;4.25;;;;;;;;;;4975472;28;1101133;-60
2023/06/28 02:47:13;;;;;;;9.98;4.70;;;;;;;;;;5015984;28;20053;-59
2023/06/28 02:49:42;;;;;;;7.85;4.65;;;;;;;;;;5008221;28;20046;-58
2023/06/28 02:52:09;;;;;;;10.25;5.05;;;;;;;;;;5007373;28;20045;-59
2023/06/28 02:54:35;;;;;;;10.65;4.85;;;;;;;;;;5006903;28;20033;-58
2023/06/28 02:57:01;;;;;;;9.00;5.07;;;;;;;;;;5014304;28;20034;-58
2023/06/28 02:59:42;;;;;;;11.68;7.28;;;;;;;;;;5010763;28;20038;-58
2023/06/28 03:02:09;;;;;;;11.55;5.55;;;;;;;;;;5006296;28;20034;-58
2023/06/28 03:04:39;;;;;;;8.52;5.10;;;;;;;;;;5004095;28;20058;-58
2023/06/28 03:07:15;;;;;;;12.95;5.60;;;;;;;;;;5002252;28;20034;-58
2023/06/28 03:09:41;;;;;;;9.38;4.97;;;;;;;;;;5015000;28;20045;-59
2023/06/28 03:12:08;;;;;;;9.88;5.40;;;;;;;;;;5005482;28;20635;-59
2023/06/28 03:14:35;;;;;;;11.27;5.55;;;;;;;;;;5004975;28;20038;-59
2023/06/28 03:17:01;;;;;;;10.82;5.78;;;;;;;;;;4999121;28;20061;-59
2023/06/28 03:19:27;;;;;;;9.77;5.00;;;;;;;;;;5013743;28;20069;-58
2023/06/28 03:21:55;;;;;;;7.72;5.03;;;;;;;;;;5009401;28;20038;-58
2023/06/28 03:24:21;;;;;;;11.75;5.45;;;;;;;;;;5002858;28;20855;-59
2023/06/28 03:26:48;;;;;;;9.13;5.32;;;;;;;;;;5003281;28;20049;-58
2023/06/28 03:29:14;;;;;;;7.35;5.13;;;;;;;;;;5007122;28;20040;-58
2023/06/28 03:31:41;;;;;;;10.05;5.80;;;;;;;;;;5009144;28;20038;-58
2023/06/28 03:34:07;;;;;;;10.73;5.20;;;;;;;;;;5008555;28;20049;-59
2023/06/28 03:36:34;;;;;;;10.07;5.57;;;;;;;;;;5009379;28;20041;-58
2023/06/28 03:39:00;;;;;;;8.55;5.25;;;;;;;;;;5013408;28;20068;-59
2023/06/28 03:41:27;;;;;;;10.60;5.30;;;;;;;;;;5013516;28;20046;-59
2023/06/28 03:43:54;;;;;;;10.60;5.90;;;;;;;;;;5012973;28;20054;-59
2023/06/28 03:46:20;;;;;;;13.35;5.53;;;;;;;;;;5010154;28;20041;-59
2023/06/28 03:48:46;;;;;;;13.65;6.38;;;;;;;;;;5016016;28;20041;-59
2023/06/28 03:51:12;;;;;;;13.75;5.97;;;;;;;;;;5008593;28;20036;-58
2023/06/28 03:53:38;;;;;;;9.35;5.85;;;;;;;;;;5015194;28;20048;-57
2023/06/28 03:56:05;;;;;;;11.60;6.32;;;;;;;;;;5004500;28;20053;-58
2023/06/28 03:58:31;;;;;;;12.85;5.85;;;;;;;;;;5006667;28;20049;-58
2023/06/28 04:00:57;;;;;;;11.30;5.72;;;;;;;;;;5008059;28;20029;-59
2023/06/28 04:03:23;;;;;;;10.07;6.00;;;;;;;;;;5010132;28;20052;-58
2023/06/28 04:05:50;;;;;;;11.63;6.15;;;;;;;;;;5015752;28;20049;-58
2023/06/28 04:08:16;;;;;;;15.40;6.05;;;;;;;;;;5005129;28;20407;-59
2023/06/28 04:10:43;;;;;;;8.90;5.63;;;;;;;;;;5008791;28;20037;-58
2023/06/28 04:13:10;;;;;;;15.13;6.05;;;;;;;;;;5008057;28;20444;-58
2023/06/28 04:15:36;;;;;;;13.18;5.93;;;;;;;;;;5006048;28;20034;-58
2023/06/28 04:18:02;;;;;;;11.95;5.65;;;;;;;;;;5009887;28;20411;-59
2023/06/28 04:20:29;;;;;;;11.98;5.95;;;;;;;;;;5006802;28;20376;-57
2023/06/28 04:22:55;;;;;;;11.23;6.07;;;;;;;;;;5007637;28;20046;-58
2023/06/28 04:25:21;;;;;;;11.88;7.00;;;;;;;;;;5007736;28;20057;-59
2023/06/28 04:27:47;;;;;;;17.58;8.68;;;;;;;;;;5008491;28;20511;-58
2023/06/28 04:30:14;;;;;;;13.38;6.30;;;;;;;;;;5005880;28;20050;-59
2023/06/28 04:32:42;;;;;;;14.50;6.15;;;;;;;;;;5008786;28;20038;-60
2023/06/28 04:35:09;;;;;;;15.15;6.15;;;;;;;;;;5000573;28;20034;-59
2023/06/28 04:37:38;;;;;;;9.32;6.05;;;;;;;;;;5008351;28;20042;-59
2023/06/28 04:40:05;;;;;;;14.10;6.93;;;;;;;;;;5006448;28;20046;-57
2023/06/28 04:42:31;;;;;;;16.58;7.35;;;;;;;;;;5012189;28;20052;-59
2023/06/28 04:45:00;;;;;;;13.68;6.72;;;;;;;;;;4999133;28;20416;-59
2023/06/28 04:47:27;;;;;;;18.20;8.27;;;;;;;;;;5010152;28;20026;-57
2023/06/28 04:49:54;;;;;;;9.95;6.57;;;;;;;;;;5014559;28;20064;-58
2023/06/28 04:52:25;;;;;;;13.82;7.05;;;;;;;;;;5007217;28;20058;-58
2023/06/28 04:54:51;;;;;;;12.32;6.47;;;;;;;;;;5006146;28;20054;-57
2023/06/28 04:57:20;;;;;;;11.75;6.72;;;;;;;;;;5018241;28;20045;-59
2023/06/28 04:59:46;;;;;;;17.48;7.15;;;;;;;;;;5010982;28;20046;-59
2023/06/28 05:02:14;;;;;;;13.85;6.70;;;;;;;;;;5004195;28;20525;-59
2023/06/28 05:04:41;;;;;;;11.20;7.28;;;;;;;;;;5013723;28;20038;-59
2023/06/28 05:07:09;;;;;;;16.20;7.07;;;;;;;;;;5011485;28;20041;-59
2023/06/28 05:09:37;;;;;;;14.63;6.63;;;;;;;;;;5016144;28;20033;-58
2023/06/28 05:12:04;;;;;;;13.02;7.05;;;;;;;;;;5013554;28;20038;-60
2023/06/28 05:14:30;;;;;;;14.52;7.18;;;;;;;;;;5013702;28;20025;-60
2023/06/28 05:17:00;;;;;;;15.82;7.20;;;;;;;;;;5004747;28;20045;-59
2023/06/28 05:19:28;;;;;;;16.95;6.53;;;;;;;;;;5016189;28;20041;-59
2023/06/28 05:21:54;;;;;;;13.37;6.70;;;;;;;;;;5011859;28;20036;-59
2023/06/28 05:24:21;;;;;;;14.60;6.70;;;;;;;;;;5016135;28;20293;-58
2023/06/28 05:26:47;;;;;;;13.23;6.47;;;;;;;;;;5008844;28;20034;-60
2023/06/28 05:29:15;;;;;;;15.52;7.05;;;;;;;;;;5011166;28;20399;-59
2023/06/28 05:31:45;;;;;;;14.68;7.60;;;;;;;;;;5015556;28;20870;-60
2023/06/28 05:34:11;;;;;;;15.27;7.28;;;;;;;;;;5016923;28;20037;-59
2023/06/28 05:36:37;;;;;;;15.75;7.95;;;;;;;;;;5015840;28;20037;-58
2023/06/28 05:39:04;;;;;;;23.67;11.25;;;;;;;;;;5016005;28;20042;-59
2023/06/28 05:41:30;;;;;;;21.58;10.20;;;;;;;;;;5011972;28;20038;-58
2023/06/28 05:43:56;;;;;;;13.90;6.50;;;;;;;;;;5011429;28;20117;-59
2023/06/28 05:46:22;;;;;;;14.10;7.25;;;;;;;;;;5016063;28;20048;-59
2023/06/28 05:48:50;;;;;;;19.05;8.05;;;;;;;;;;5011237;28;20388;-58
2023/06/28 05:54:16;;;;;;;17.88;7.03;;;;;;;;;;5000494;28;20034;-75
2023/06/28 05:56:45;;;;;;;13.55;6.43;;;;;;;;;;5008640;28;20042;-77
2023/06/28 05:59:11;;;;;;;11.52;6.72;;;;;;;;;;5008330;28;20037;-76
2023/06/28 06:01:38;;;;;;;17.73;7.00;;;;;;;;;;5019892;28;20042;-77
2023/06/28 06:04:04;;;;;;;20.33;8.85;;;;;;;;;;5008763;28;20364;-77
2023/06/28 06:06:32;;;;;;;15.95;8.15;;;;;;;;;;4994958;28;20040;-75
2023/06/28 06:08:58;;;;;;;13.32;7.05;;;;;;;;;;5025640;28;20029;-76
2023/06/28 06:11:27;;;;;;;20.27;8.27;;;;;;;;;;5014507;28;20041;-75
2023/06/28 06:13:55;;;;;;;13.82;6.65;;;;;;;;;;5007005;28;20484;-77
2023/06/28 06:16:24;;;;;;;15.50;7.78;;;;;;;;;;5008955;28;20449;-76
2023/06/28 06:18:52;;;;;;;21.15;8.13;;;;;;;;;;5010795;28;20044;-76
2023/06/28 06:21:21;;;;;;;16.60;7.35;;;;;;;;;;5023243;28;20042;-75
2023/06/28 06:23:49;;;;;;;17.35;7.50;;;;;;;;;;4994084;28;20037;-75
2023/06/28 06:26:15;;;;;;;14.50;7.35;;;;;;;;;;5021231;28;20042;-75
2023/06/28 06:28:44;;;;;;;15.55;7.35;;;;;;;;;;4991920;28;20049;-77
2023/06/28 06:31:13;;;;;;;14.95;6.82;;;;;;;;;;5008504;28;20033;-75
2023/06/28 06:33:40;;;;;;;16.40;7.10;;;;;;;;;;5007652;28;20057;-76
2023/06/28 06:36:09;;;;;;;16.75;6.68;;;;;;;;;;5007870;28;20034;-74
2023/06/28 06:38:37;;;;;;;14.20;6.93;;;;;;;;;;4997586;28;20045;-74
2023/06/28 06:41:03;;;;;;;21.70;7.37;;;;;;;;;;5010850;28;20323;-74
2023/06/28 06:43:30;;;;;;;14.40;6.18;;;;;;;;;;5024574;28;20056;-75
2023/06/28 06:46:00;;;;;;;11.90;6.67;;;;;;;;;;5004499;28;20034;-77
2023/06/28 06:48:27;;;;;;;13.18;6.43;;;;;;;;;;4997104;28;20347;-77
2023/06/28 06:50:53;;;;;;;21.30;7.18;;;;;;;;;;4971452;28;20053;-76
2023/06/28 06:53:19;;;;;;;18.20;7.10;;;;;;;;;;5013818;28;20034;-75
2023/06/28 06:55:45;;;;;;;13.95;6.45;;;;;;;;;;5007686;28;20031;-75
2023/06/28 06:58:14;;;;;;;11.13;5.32;;;;;;;;;;5010534;28;20606;-75
2023/06/28 07:00:40;;;;;;;14.23;6.38;;;;;;;;;;4993125;28;20033;-75
2023/06/28 07:03:08;;;;;;;13.70;6.00;;;;;;;;;;5007269;28;20040;-75
2023/06/28 07:05:37;;;;;;;13.82;7.18;;;;;;;;;;5003352;28;20034;-75
2023/06/28 07:08:03;;;;;;;14.52;5.82;;;;;;;;;;4990613;28;20057;-75
2023/06/28 07:10:32;;;;;;;12.30;5.63;;;;;;;;;;4994279;28;20049;-75
2023/06/28 07:12:58;;;;;;;15.50;5.70;;;;;;;;;;5011075;28;20030;-75
2023/06/28 07:15:24;;;;;;;13.45;5.53;;;;;;;;;;5010101;28;20049;-76
2023/06/28 07:17:53;;;;;;;11.65;4.93;;;;;;;;;;5010084;28;20040;-76
2023/06/28 07:20:19;;;;;;;13.17;5.10;;;;;;;;;;5006566;28;20037;-76
2023/06/28 07:22:46;;;;;;;7.75;4.80;;;;;;;;;;5024979;28;20289;-75
2023/06/28 07:25:14;;;;;;;14.27;5.35;;;;;;;;;;5008279;28;20128;-74
2023/06/28 07:27:41;;;;;;;10.55;5.35;;;;;;;;;;5003082;28;20045;-75
2023/06/28 07:30:08;;;;;;;9.23;5.63;;;;;;;;;;4993346;28;20052;-75
2023/06/28 07:32:34;;;;;;;10.25;5.18;;;;;;;;;;5008631;28;20033;-76
2023/06/28 07:35:00;;;;;;;9.48;5.28;;;;;;;;;;5006477;28;20396;-75
2023/06/28 07:37:26;;;;;;;12.52;4.75;;;;;;;;;;5018724;28;20029;-76
2023/06/28 07:39:53;;;;;;;8.38;4.28;;;;;;;;;;5007046;28;20033;-76
2023/06/28 07:42:23;;;;;;;12.38;4.85;;;;;;;;;;5005520;28;20034;-76
2023/06/28 07:44:50;;;;;;;9.82;4.82;;;;;;;;;;5008850;28;20054;-76
2023/06/28 07:47:16;;;;;;;8.40;4.30;;;;;;;;;;5012615;28;20037;-76
2023/06/28 07:49:42;;;;;;;13.27;5.35;;;;;;;;;;4992589;28;20045;-76
2023/06/28 07:52:09;;;;;;;13.57;4.78;;;;;;;;;;5008683;28;20038;-75
2023/06/28 07:54:35;;;;;;;10.90;5.13;;;;;;;;;;5026228;28;20052;-77
2023/06/28 07:57:01;;;;;;;6.75;4.65;;;;;;;;;;5011367;28;20121;-76
2023/06/28 07:59:28;;;;;;;11.77;4.40;;;;;;;;;;4992396;28;20042;-76
2023/06/28 08:01:54;;;;;;;8.35;4.40;;;;;;;;;;5007096;28;20053;-76
2023/06/28 08:04:21;;;;;;;10.75;4.10;;;;;;;;;;5004671;28;20040;-76
2023/06/28 08:06:47;;;;;;;10.75;4.53;;;;;;;;;;5020871;28;20416;-76
2023/06/28 08:09:16;;;;;;;11.07;4.90;;;;;;;;;;5010296;28;20044;-75
2023/06/28 08:11:42;;;;;;;10.80;4.85;;;;;;;;;;5005498;28;20034;-75
2023/06/28 08:14:08;;;;;;;9.15;4.50;;;;;;;;;;5005990;28;20049;-75
2023/06/28 08:16:39;;;;;;;9.80;4.60;;;;;;;;;;5009374;28;20025;-75
2023/06/28 08:19:05;;;;;;;9.20;4.73;;;;;;;;;;5009169;28;20037;-75
2023/06/28 08:21:36;;;;;;;9.77;4.78;;;;;;;;;;5010428;28;20045;-75
2023/06/28 08:24:05;;;;;;;10.52;5.07;;;;;;;;;;5007778;28;20030;-75
2023/06/28 08:26:31;;;;;;;10.90;4.65;;;;;;;;;;5022334;28;20052;-75
2023/06/28 08:28:57;;;;;;;18.25;5.18;;;;;;;;;;5006570;28;20096;-75
2023/06/28 08:31:24;;;;;;;13.77;4.70;;;;;;;;;;5022276;28;20030;-75
2023/06/28 08:33:50;;;;;;;17.38;5.20;;;;;;;;;;5009998;28;20049;-75
2023/06/28 08:36:16;;;;;;;13.05;4.50;;;;;;;;;;4999409;28;20042;-75
2023/06/28 08:38:42;;;;;;;7.07;4.57;;;;;;;;;;5007050;28;20057;-76
2023/06/28 08:41:11;;;;;;;8.40;4.20;;;;;;;;;;5006611;28;20065;-76
2023/06/28 08:43:38;;;;;;;9.57;4.78;;;;;;;;;;5001245;28;20038;-76
2023/06/28 08:46:04;;;;;;;9.38;5.20;;;;;;;;;;5009865;28;20042;-75
2023/06/28 08:48:34;;;;;;;12.50;4.85;;;;;;;;;;5003324;28;21107;-76
2023/06/28 08:51:01;;;;;;;14.55;4.95;;;;;;;;;;4992289;28;20042;-76
2023/06/28 08:53:32;;;;;;;13.35;5.50;;;;;;;;;;5023748;28;20049;-76
2023/06/28 08:55:59;;;;;;;9.15;4.20;;;;;;;;;;4988304;28;20065;-75
2023/06/28 08:58:29;;;;;;;12.85;4.55;;;;;;;;;;4975525;28;20531;-76
2023/06/28 09:00:58;;;;;;;10.45;4.20;;;;;;;;;;5013726;28;20041;-76
2023/06/28 09:03:25;;;;;;;7.93;4.03;;;;;;;;;;4993811;28;20038;-76
2023/06/28 09:05:52;;;;;;;12.13;4.35;;;;;;;;;;4987352;28;20053;-76
2023/06/28 09:08:19;;;;;;;11.55;4.28;;;;;;;;;;5006071;28;20042;-76
2023/06/28 09:10:46;;;;;;;11.68;4.57;;;;;;;;;;5008207;28;20030;-76
2023/06/28 09:13:19;;;;;;;12.77;4.25;;;;;;;;;;5010966;28;20038;-76
2023/06/28 09:15:46;;;;;;;11.07;4.60;;;;;;;;;;5027220;28;20026;-76
2023/06/28 09:18:15;;;;;;;8.70;4.20;;;;;;;;;;5009478;28;20036;-76
2023/06/28 09:20:52;;;;;;;6.85;3.90;;;;;;;;;;5005305;28;20041;-74
2023/06/28 09:23:24;;;;;;;5.60;3.85;;;;;;;;;;5018136;28;20499;-74
2023/06/28 09:25:50;;;;;;;7.10;4.60;;;;;;;;;;4994862;28;20060;-75
2023/06/28 09:28:17;;;;;;;11.13;3.75;;;;;;;;;;5008319;28;20038;-76
2023/06/28 09:30:55;;;;;;;8.27;3.75;;;;;;;;;;5007671;28;20056;-76
2023/06/28 09:33:23;;;;;;;10.25;3.67;;;;;;;;;;5011221;28;20042;-76
2023/06/28 09:35:57;;;;;;;10.35;4.20;;;;;;;;;;5002358;28;20124;-75
2023/06/28 09:38:26;;;;;;;10.25;4.47;;;;;;;;;;5010680;28;20037;-75
2023/06/28 09:40:57;;;;;;;8.35;3.33;;;;;;;;;;5001240;28;20038;-75
2023/06/28 09:43:23;;;;;;;6.80;3.70;;;;;;;;;;5008482;28;20037;-76
2023/06/28 09:45:54;;;;;;;7.70;3.38;;;;;;;;;;5006988;28;20049;-76
2023/06/28 09:48:25;;;;;;;6.70;3.25;;;;;;;;;;4993304;28;20033;-76
2023/06/28 09:50:56;;;;;;;5.40;3.08;;;;;;;;;;5005623;28;20033;-76
2023/06/28 09:53:26;;;;;;;11.23;4.03;;;;;;;;;;4992059;28;20038;-76
2023/06/28 09:55:52;;;;;;;7.32;3.75;;;;;;;;;;4991036;28;20383;-77
2023/06/28 09:58:22;;;;;;;9.73;3.70;;;;;;;;;;5001157;28;20037;-77
2023/06/28 10:00:49;;;;;;;8.25;3.50;;;;;;;;;;5006905;28;20480;-78
2023/06/28 10:03:21;;;;;;;8.95;3.72;;;;;;;;;;5004866;28;20049;-78
2023/06/28 10:05:49;;;;;;;9.13;3.95;;;;;;;;;;5026031;28;20531;-77
2023/06/28 10:08:16;;;;;;;7.50;3.55;;;;;;;;;;5010046;28;20038;-77
2023/06/28 10:10:46;;;;;;;7.85;3.40;;;;;;;;;;5007295;28;20031;-78
2023/06/28 10:13:20;;;;;;;7.90;3.50;;;;;;;;;;4989284;28;20034;-77
2023/06/28 10:16:01;;;;;;;9.15;3.78;;;;;;;;;;5007761;28;20038;-77
2023/06/28 10:18:28;;;;;;;9.68;3.40;;;;;;;;;;5006052;28;20405;-76
2023/06/28 10:20:54;;;;;;;8.90;3.20;;;;;;;;;;5002408;28;20045;-77
2023/06/28 10:23:24;;;;;;;8.43;3.50;;;;;;;;;;5004083;28;20045;-76
2023/06/28 10:25:54;;;;;;;10.10;3.22;;;;;;;;;;4984564;28;20038;-76
2023/06/28 10:28:21;;;;;;;8.20;3.70;;;;;;;;;;5004944;28;20038;-77
2023/06/28 10:30:51;;;;;;;9.40;3.80;;;;;;;;;;4988198;28;20810;-77
2023/06/28 10:33:23;;;;;;;7.90;3.53;;;;;;;;;;5006209;28;20038;-77
2023/06/28 10:35:50;;;;;;;5.53;3.80;;;;;;;;;;5008358;28;20045;-78
2023/06/28 10:38:21;;;;;;;8.25;4.03;;;;;;;;;;5009450;28;20053;-77
2023/06/28 10:40:47;;;;;;;;;;;;;;;;;;5009133;28;20049;-77
2023/06/28 10:43:22;;;;;;;7.70;3.65;;;;;;;;;;5010705;28;20384;-77
2023/06/28 10:45:48;;;;;;;9.52;3.67;;;;;;;;;;5007209;28;20030;-77
2023/06/28 10:48:22;;;;;;;7.72;3.92;;;;;;;;;;5007084;28;20038;-78
2023/06/28 10:50:50;;;;;;;7.75;3.83;;;;;;;;;;5005272;28;20049;-76
2023/06/28 10:53:23;;;;;;;6.20;3.50;;;;;;;;;;5007509;28;20029;-76
2023/06/28 10:56:11;;;;;;;7.00;3.63;;;;;;;;;;5005598;28;20053;-76
2023/06/28 10:58:38;;;;;;;9.23;3.90;;;;;;;;;;4988448;28;20503;-76
2023/06/28 11:01:12;;;;;;;10.05;4.15;;;;;;;;;;5004889;28;20047;-76
2023/06/28 11:03:43;;;;;;;9.25;4.40;;;;;;;;;;5008864;28;20046;-78
2023/06/28 11:06:11;;;;;;;9.85;5.35;;;;;;;;;;5010531;28;20038;-77
2023/06/28 11:08:44;;;;;;;9.10;5.68;;;;;;;;;;5005530;28;20045;-77
2023/06/28 11:11:34;;;;;;;10.77;4.95;;;;;;;;;;5003320;28;20038;-77
2023/06/28 11:14:16;;;;;;;13.23;5.65;;;;;;;;;;5010012;28;20400;-77
2023/06/28 11:16:48;;;;;;;12.40;4.97;;;;;;;;;;5007491;28;20042;-77
2023/06/28 11:19:18;;;;;;;10.57;4.55;;;;;;;;;;5005045;28;20034;-77
2023/06/28 11:21:54;;;;;;;8.73;4.28;;;;;;;;;;5000807;28;20042;-78
2023/06/28 11:24:35;;;;;;;9.13;4.32;;;;;;;;;;5003102;28;20042;-78
2023/06/28 11:27:08;;;;;;;10.07;4.28;;;;;;;;;;4992297;28;20042;-78
2023/06/28 11:29:57;;;;;;;10.70;4.25;;;;;;;;;;5021294;28;20045;-78
2023/06/28 11:32:28;;;;;;;12.75;4.15;;;;;;;;;;4977216;28;20513;-78
2023/06/28 11:34:56;;;;;;;9.23;5.60;;;;;;;;;;5006909;28;20069;-80
2023/06/28 11:37:23;;;;;;;15.45;5.03;;;;;;;;;;5010979;28;20041;-77
2023/06/28 11:39:51;;;;;;;10.07;5.93;;;;;;;;;;4995027;28;20049;-75
2023/06/28 11:42:21;;;;;;;9.43;4.88;;;;;;;;;;5006829;28;20448;-78
2023/06/28 11:44:51;;;;;;;13.38;5.22;;;;;;;;;;5006467;28;20048;-76
2023/06/28 11:47:24;;;;;;;10.23;5.10;;;;;;;;;;5003925;28;20476;-76
2023/06/28 11:49:52;;;;;;;11.18;4.70;;;;;;;;;;5024415;28;20034;-76
2023/06/28 11:52:20;;;;;;;9.05;4.55;;;;;;;;;;5018662;28;20416;-76
2023/06/28 11:54:53;;;;;;;9.13;4.85;;;;;;;;;;5005639;28;20045;-78
2023/06/28 11:57:19;;;;;;;7.47;4.07;;;;;;;;;;4993774;28;20042;-75
2023/06/28 11:59:52;;;;;;;10.65;4.47;;;;;;;;;;5006827;28;20068;-76
2023/06/28 12:02:20;;;;;;;10.85;3.90;;;;;;;;;;5024450;28;20034;-76
2023/06/28 12:05:02;;;;;;;10.05;4.47;;;;;;;;;;5004026;28;20042;-76
2023/06/28 12:07:28;;;;;;;8.65;3.90;;;;;;;;;;5000991;28;20042;-77
2023/06/28 12:09:56;;;;;;;10.07;4.13;;;;;;;;;;5006164;28;20033;-75
2023/06/28 12:12:32;;;;;;;9.43;4.45;;;;;;;;;;5005497;28;20041;-78
2023/06/28 12:14:58;;;;;;;11.07;4.47;;;;;;;;;;4977017;28;20042;-76
2023/06/28 12:17:24;;;;;;;6.78;3.85;;;;;;;;;;4992904;28;20045;-76
2023/06/28 12:19:52;;;;;;;7.75;3.97;;;;;;;;;;5017012;28;20045;-75
2023/06/28 12:22:21;;;;;;;9.95;4.13;;;;;;;;;;5000183;28;20038;-76
2023/06/28 12:24:49;;;;;;;8.55;4.18;;;;;;;;;;5004656;28;20042;-77
2023/06/28 12:27:17;;;;;;;7.70;4.25;;;;;;;;;;5005344;28;20060;-77
2023/06/28 12:29:44;;;;;;;12.00;4.50;;;;;;;;;;5002611;28;20039;-77
2023/06/28 12:32:15;;;;;;;8.07;4.32;;;;;;;;;;4999258;28;20293;-74
2023/06/28 12:34:49;;;;;;;12.45;4.25;;;;;;;;;;5008612;28;20049;-75
2023/06/28 12:37:20;;;;;;;9.75;4.07;;;;;;;;;;4996038;28;20041;-76
2023/06/28 12:39:49;;;;;;;11.73;4.60;;;;;;;;;;5009616;28;20197;-75
2023/06/28 12:42:22;;;;;;;8.88;4.57;;;;;;;;;;5007286;28;20034;-76
2023/06/28 12:44:59;;;;;;;10.88;4.32;;;;;;;;;;5013711;28;20041;-77
2023/06/28 12:47:27;;;;;;;8.90;4.13;;;;;;;;;;4990330;28;20034;-75
2023/06/28 12:49:58;;;;;;;13.52;3.95;;;;;;;;;;5010119;28;20041;-77
2023/06/28 12:52:26;;;;;;;7.90;3.80;;;;;;;;;;4992142;28;20052;-77
2023/06/28 12:54:52;;;;;;;7.07;4.30;;;;;;;;;;5020013;28;20045;-76
2023/06/28 12:57:26;;;;;;;;;;;;;;;;;;5005530;28;20293;-78
2023/06/28 12:59:57;;;;;;;14.15;4.18;;;;;;;;;;5009986;28;19917;-78
2023/06/28 13:48:23;;;;;;;8.43;3.85;;;;;;;;;;4947706;28;20058;-61
2023/06/28 13:50:49;;;;;;;7.15;4.25;;;;;;;;;;4966640;28;20042;-62
2023/06/28 13:53:15;;;;;;;6.07;4.00;;;;;;;;;;4943916;28;20547;-61
2023/06/28 13:55:41;;;;;;;8.23;3.97;;;;;;;;;;4934892;28;20055;-60
2023/06/28 13:58:08;;;;;;;9.18;4.32;;;;;;;;;;4928609;29;20569;-60
2023/06/28 14:00:34;;;;;;;11.57;4.28;;;;;;;;;;4931796;29;20044;-61
2023/06/28 14:03:00;;;;;;;6.75;3.90;;;;;;;;;;4933744;29;20059;-61
2023/06/28 14:05:26;;;;;;;7.60;3.83;;;;;;;;;;4934611;29;20031;-62
2023/06/28 14:07:52;;;;;;;5.75;3.40;;;;;;;;;;4935075;29;20051;-62
2023/06/28 14:10:19;;;;;;;10.82;4.07;;;;;;;;;;4935318;28;20599;-61
2023/06/28 14:12:45;;;;;;;9.75;4.00;;;;;;;;;;4933667;29;20044;-61
2023/06/28 14:15:11;;;;;;;8.20;3.72;;;;;;;;;;4934593;29;21516;-61
2023/06/28 14:17:37;;;;;;;7.28;3.83;;;;;;;;;;4934243;29;20435;-61
2023/06/28 14:20:04;;;;;;;8.25;3.60;;;;;;;;;;4933963;29;20035;-61
2023/06/28 14:22:31;;;;;;;7.47;3.80;;;;;;;;;;4934356;29;20043;-64
2023/06/28 14:24:57;;;;;;;7.22;3.70;;;;;;;;;;4932652;29;20036;-64
2023/06/28 14:27:23;;;;;;;14.18;3.90;;;;;;;;;;4934330;29;20035;-61
2023/06/28 14:29:49;;;;;;;9.23;4.30;;;;;;;;;;4934663;29;20040;-63
2023/06/28 14:32:15;;;;;;;8.57;4.05;;;;;;;;;;4934343;28;20497;-63
2023/06/28 14:34:41;;;;;;;8.40;3.80;;;;;;;;;;4932943;29;20036;-64
2023/06/28 14:37:07;;;;;;;6.97;3.40;;;;;;;;;;4933443;29;20405;-63
2023/06/28 14:39:33;;;;;;;13.45;4.38;;;;;;;;;;4933817;29;20036;-60
2023/06/28 14:42:00;;;;;;;8.70;3.90;;;;;;;;;;4948655;28;20044;-62
2023/06/28 14:44:26;;;;;;;9.68;3.80;;;;;;;;;;4933217;29;20489;-61
2023/06/28 14:46:52;;;;;;;12.50;4.10;;;;;;;;;;4935721;29;20035;-61
2023/06/28 14:49:19;;;;;;;8.80;4.00;;;;;;;;;;4935547;29;20031;-62
2023/06/28 14:51:46;;;;;;;8.25;4.03;;;;;;;;;;4943498;28;20402;-62
2023/06/28 14:54:12;;;;;;;10.82;4.22;;;;;;;;;;4930164;29;20050;-61
2023/06/28 14:56:38;;;;;;;8.98;4.38;;;;;;;;;;4933336;29;20052;-61
2023/06/28 14:59:04;;;;;;;9.05;3.80;;;;;;;;;;4937195;29;20031;-61
2023/06/28 15:01:32;;;;;;;8.65;4.13;;;;;;;;;;4937407;28;20430;-60
2023/06/28 15:03:59;;;;;;;8.75;3.65;;;;;;;;;;4949622;28;20039;-60
2023/06/28 15:06:25;;;;;;;7.80;3.92;;;;;;;;;;4946552;28;20433;-61
2023/06/28 15:08:51;;;;;;;6.72;3.50;;;;;;;;;;4934185;28;20056;-61
2023/06/28 15:11:17;;;;;;;5.55;3.58;;;;;;;;;;4949747;28;20066;-62
2023/06/28 15:13:43;;;;;;;6.25;4.32;;;;;;;;;;4931325;29;20043;-62
2023/06/28 15:16:09;;;;;;;7.45;3.75;;;;;;;;;;4929599;29;20503;-61
2023/06/28 15:18:35;;;;;;;6.47;3.83;;;;;;;;;;4934273;28;20128;-62
2023/06/28 15:21:02;;;;;;;10.77;3.90;;;;;;;;;;4952104;28;20066;-61
2023/06/28 15:23:28;;;;;;;13.85;4.50;;;;;;;;;;4952732;28;20035;-61
2023/06/28 15:25:54;;;;;;;9.43;4.53;;;;;;;;;;4936452;28;20054;-60
2023/06/28 15:28:20;;;;;;;8.02;3.92;;;;;;;;;;4933716;29;20039;-60
2023/06/28 15:30:46;;;;;;;6.40;3.90;;;;;;;;;;4935331;29;20046;-62